sensor_id;sensor_type;location;lat;lon;timestamp;temperature;humidity
24448;DHT22;13348;50.984;5.822;2023-07-20T00:02:02;16.50;99.90
24448;DHT22;13348;50.984;5.822;2023-07-20T00:04:30;16.40;99.90
24448;DHT22;13348;50.984;5.822;2023-07-20T00:06:57;16.40;99.90
24448;DHT22;13348;50.984;5.822;2023-07-20T00:09:26;16.30;99.90
24448;DHT22;13348;50.984;5.822;2023-07-20T00:11:53;16.20;99.90
24448;DHT22;13348;50.984;5.822;2023-07-20T00:14:19;16.00;99.90
24448;DHT22;13348;50.984;5.822;2023-07-20T00:16:49;15.90;99.90
24448;DHT22;13348;50.984;5.822;2023-07-20T00:19:21;15.70;99.90
24448;DHT22;13348;50.984;5.822;2023-07-20T00:21:48;15.70;99.90
24448;DHT22;13348;50.984;5.822;2023-07-20T00:24:15;15.60;99.90
24448;DHT22;13348;50.984;5.822;2023-07-20T00:26:42;15.60;99.90
24448;DHT22;13348;50.984;5.822;2023-07-20T00:29:09;15.60;99.90
24448;DHT22;13348;50.984;5.822;2023-07-20T00:31:36;15.60;99.90
24448;DHT22;13348;50.984;5.822;2023-07-20T00:34:04;15.60;99.90
24448;DHT22;13348;50.984;5.822;2023-07-20T00:36:32;15.60;99.90
24448;DHT22;13348;50.984;5.822;2023-07-20T00:38:59;15.60;99.90
24448;DHT22;13348;50.984;5.822;2023-07-20T00:41:25;15.70;99.90
24448;DHT22;13348;50.984;5.822;2023-07-20T00:43:54;15.70;99.90
24448;DHT22;13348;50.984;5.822;2023-07-20T00:46:21;15.60;99.90
24448;DHT22;13348;50.984;5.822;2023-07-20T00:48:49;15.70;99.90
24448;DHT22;13348;50.984;5.822;2023-07-20T00:51:17;15.70;99.90
24448;DHT22;13348;50.984;5.822;2023-07-20T00:53:44;15.80;99.90
24448;DHT22;13348;50.984;5.822;2023-07-20T00:56:11;15.80;99.90
24448;DHT22;13348;50.984;5.822;2023-07-20T00:58:38;15.70;99.90
24448;DHT22;13348;50.984;5.822;2023-07-20T01:01:05;15.70;99.90
24448;DHT22;13348;50.984;5.822;2023-07-20T01:03:32;15.70;99.90
24448;DHT22;13348;50.984;5.822;2023-07-20T01:06:01;15.70;99.90
24448;DHT22;13348;50.984;5.822;2023-07-20T01:08:32;15.70;99.90
24448;DHT22;13348;50.984;5.822;2023-07-20T01:11:01;15.70;99.90
24448;DHT22;13348;50.984;5.822;2023-07-20T01:13:32;15.70;99.90
24448;DHT22;13348;50.984;5.822;2023-07-20T01:16:00;15.70;99.90
24448;DHT22;13348;50.984;5.822;2023-07-20T01:18:27;15.70;99.90
24448;DHT22;13348;50.984;5.822;2023-07-20T01:20:56;15.70;99.90
24448;DHT22;13348;50.984;5.822;2023-07-20T01:23:34;15.80;99.90
24448;DHT22;13348;50.984;5.822;2023-07-20T01:26:12;15.80;99.90
24448;DHT22;13348;50.984;5.822;2023-07-20T01:31:31;15.90;99.90
24448;DHT22;13348;50.984;5.822;2023-07-20T01:34:00;15.80;99.90
24448;DHT22;13348;50.984;5.822;2023-07-20T01:36:30;15.80;99.90
24448;DHT22;13348;50.984;5.822;2023-07-20T01:38:57;15.80;99.90
24448;DHT22;13348;50.984;5.822;2023-07-20T01:41:24;15.70;99.90
24448;DHT22;13348;50.984;5.822;2023-07-20T01:43:51;15.60;99.90
24448;DHT22;13348;50.984;5.822;2023-07-20T01:46:18;15.60;99.90
24448;DHT22;13348;50.984;5.822;2023-07-20T01:48:46;15.60;99.90
24448;DHT22;13348;50.984;5.822;2023-07-20T01:51:13;15.70;99.90
24448;DHT22;13348;50.984;5.822;2023-07-20T01:53:43;15.70;99.90
24448;DHT22;13348;50.984;5.822;2023-07-20T01:56:10;15.80;99.90
24448;DHT22;13348;50.984;5.822;2023-07-20T01:58:38;15.80;99.90
24448;DHT22;13348;50.984;5.822;2023-07-20T02:01:05;15.80;99.90
24448;DHT22;13348;50.984;5.822;2023-07-20T02:03:31;15.80;99.90
24448;DHT22;13348;50.984;5.822;2023-07-20T02:06:00;15.70;99.90
24448;DHT22;13348;50.984;5.822;2023-07-20T02:08:27;15.70;99.90
24448;DHT22;13348;50.984;5.822;2023-07-20T02:10:54;15.70;99.90
24448;DHT22;13348;50.984;5.822;2023-07-20T02:13:21;15.70;99.90
24448;DHT22;13348;50.984;5.822;2023-07-20T02:15:48;15.60;99.90
24448;DHT22;13348;50.984;5.822;2023-07-20T02:18:16;15.60;99.90
24448;DHT22;13348;50.984;5.822;2023-07-20T02:20:43;15.60;99.90
24448;DHT22;13348;50.984;5.822;2023-07-20T02:23:11;15.50;99.90
24448;DHT22;13348;50.984;5.822;2023-07-20T02:25:38;15.40;99.90
24448;DHT22;13348;50.984;5.822;2023-07-20T02:28:06;15.40;99.90
24448;DHT22;13348;50.984;5.822;2023-07-20T02:30:34;15.20;99.90
24448;DHT22;13348;50.984;5.822;2023-07-20T02:33:00;15.20;99.90
24448;DHT22;13348;50.984;5.822;2023-07-20T02:35:27;15.10;99.90
24448;DHT22;13348;50.984;5.822;2023-07-20T02:37:55;15.00;99.90
24448;DHT22;13348;50.984;5.822;2023-07-20T02:40:23;15.00;99.90
24448;DHT22;13348;50.984;5.822;2023-07-20T02:42:50;14.90;99.90
24448;DHT22;13348;50.984;5.822;2023-07-20T02:45:17;14.90;99.90
24448;DHT22;13348;50.984;5.822;2023-07-20T02:47:44;14.80;99.90
24448;DHT22;13348;50.984;5.822;2023-07-20T02:50:11;14.80;99.90
24448;DHT22;13348;50.984;5.822;2023-07-20T02:52:39;14.80;99.90
24448;DHT22;13348;50.984;5.822;2023-07-20T02:55:07;14.80;99.90
24448;DHT22;13348;50.984;5.822;2023-07-20T02:57:35;14.80;99.90
24448;DHT22;13348;50.984;5.822;2023-07-20T03:00:02;14.90;99.90
24448;DHT22;13348;50.984;5.822;2023-07-20T03:02:31;14.90;99.90
24448;DHT22;13348;50.984;5.822;2023-07-20T03:04:58;15.00;99.90
24448;DHT22;13348;50.984;5.822;2023-07-20T03:07:26;15.10;99.90
24448;DHT22;13348;50.984;5.822;2023-07-20T03:09:53;15.20;99.90
24448;DHT22;13348;50.984;5.822;2023-07-20T03:12:20;15.20;99.90
24448;DHT22;13348;50.984;5.822;2023-07-20T03:14:49;15.20;99.90
24448;DHT22;13348;50.984;5.822;2023-07-20T03:17:16;15.20;99.90
24448;DHT22;13348;50.984;5.822;2023-07-20T03:19:43;15.20;99.90
24448;DHT22;13348;50.984;5.822;2023-07-20T03:22:10;15.20;99.90
24448;DHT22;13348;50.984;5.822;2023-07-20T03:24:37;15.10;99.90
24448;DHT22;13348;50.984;5.822;2023-07-20T03:27:04;15.00;99.90
24448;DHT22;13348;50.984;5.822;2023-07-20T03:29:31;15.00;99.90
24448;DHT22;13348;50.984;5.822;2023-07-20T03:31:59;15.10;99.90
24448;DHT22;13348;50.984;5.822;2023-07-20T03:34:26;15.00;99.90
24448;DHT22;13348;50.984;5.822;2023-07-20T03:36:54;15.10;99.90
24448;DHT22;13348;50.984;5.822;2023-07-20T03:39:21;15.10;99.90
24448;DHT22;13348;50.984;5.822;2023-07-20T03:41:48;15.10;99.90
24448;DHT22;13348;50.984;5.822;2023-07-20T03:44:15;15.20;99.90
24448;DHT22;13348;50.984;5.822;2023-07-20T03:46:43;15.20;99.90
24448;DHT22;13348;50.984;5.822;2023-07-20T03:49:11;15.20;99.90
24448;DHT22;13348;50.984;5.822;2023-07-20T03:51:38;15.20;99.90
24448;DHT22;13348;50.984;5.822;2023-07-20T03:54:05;15.20;99.90
24448;DHT22;13348;50.984;5.822;2023-07-20T03:56:33;15.20;99.90
24448;DHT22;13348;50.984;5.822;2023-07-20T03:59:01;15.20;99.90
24448;DHT22;13348;50.984;5.822;2023-07-20T04:01:28;15.20;99.90
24448;DHT22;13348;50.984;5.822;2023-07-20T04:03:55;15.20;99.90
24448;DHT22;13348;50.984;5.822;2023-07-20T04:06:24;15.30;99.90
24448;DHT22;13348;50.984;5.822;2023-07-20T04:08:51;15.30;99.90
24448;DHT22;13348;50.984;5.822;2023-07-20T04:11:18;15.30;99.90
24448;DHT22;13348;50.984;5.822;2023-07-20T04:13:45;15.30;99.90
24448;DHT22;13348;50.984;5.822;2023-07-20T04:16:11;15.30;99.90
24448;DHT22;13348;50.984;5.822;2023-07-20T04:18:38;15.30;99.90
24448;DHT22;13348;50.984;5.822;2023-07-20T04:21:07;15.30;99.90
24448;DHT22;13348;50.984;5.822;2023-07-20T04:23:35;15.30;99.90
24448;DHT22;13348;50.984;5.822;2023-07-20T04:26:03;15.40;99.90
24448;DHT22;13348;50.984;5.822;2023-07-20T04:28:30;15.30;99.90
24448;DHT22;13348;50.984;5.822;2023-07-20T04:31:09;15.30;99.90
24448;DHT22;13348;50.984;5.822;2023-07-20T04:33:36;15.30;99.90
24448;DHT22;13348;50.984;5.822;2023-07-20T04:36:04;15.40;99.90
24448;DHT22;13348;50.984;5.822;2023-07-20T04:38:31;15.40;99.90
24448;DHT22;13348;50.984;5.822;2023-07-20T04:40:59;15.40;99.90
24448;DHT22;13348;50.984;5.822;2023-07-20T04:43:29;15.50;99.90
24448;DHT22;13348;50.984;5.822;2023-07-20T04:45:56;15.50;99.90
24448;DHT22;13348;50.984;5.822;2023-07-20T04:48:23;15.50;99.90
24448;DHT22;13348;50.984;5.822;2023-07-20T04:50:50;15.50;99.90
24448;DHT22;13348;50.984;5.822;2023-07-20T04:53:17;15.50;99.90
24448;DHT22;13348;50.984;5.822;2023-07-20T04:55:47;15.50;99.90
24448;DHT22;13348;50.984;5.822;2023-07-20T04:58:17;15.60;99.90
24448;DHT22;13348;50.984;5.822;2023-07-20T05:00:44;15.70;99.90
24448;DHT22;13348;50.984;5.822;2023-07-20T05:03:11;15.90;99.90
24448;DHT22;13348;50.984;5.822;2023-07-20T05:05:38;15.90;99.90
24448;DHT22;13348;50.984;5.822;2023-07-20T05:08:05;15.90;99.90
24448;DHT22;13348;50.984;5.822;2023-07-20T05:10:32;15.90;99.90
24448;DHT22;13348;50.984;5.822;2023-07-20T05:12:59;15.80;99.90
24448;DHT22;13348;50.984;5.822;2023-07-20T05:15:27;15.80;99.90
24448;DHT22;13348;50.984;5.822;2023-07-20T05:17:54;15.80;99.90
24448;DHT22;13348;50.984;5.822;2023-07-20T05:20:21;15.80;99.90
24448;DHT22;13348;50.984;5.822;2023-07-20T05:22:48;15.80;99.90
24448;DHT22;13348;50.984;5.822;2023-07-20T05:25:15;15.80;99.90
24448;DHT22;13348;50.984;5.822;2023-07-20T05:27:44;15.90;99.90
24448;DHT22;13348;50.984;5.822;2023-07-20T05:30:11;15.80;99.90
24448;DHT22;13348;50.984;5.822;2023-07-20T05:32:39;15.80;99.90
24448;DHT22;13348;50.984;5.822;2023-07-20T05:35:07;15.90;99.90
24448;DHT22;13348;50.984;5.822;2023-07-20T05:37:36;15.90;99.90
24448;DHT22;13348;50.984;5.822;2023-07-20T05:40:04;15.90;99.90
24448;DHT22;13348;50.984;5.822;2023-07-20T05:42:31;15.90;99.90
24448;DHT22;13348;50.984;5.822;2023-07-20T05:44:58;16.00;99.90
24448;DHT22;13348;50.984;5.822;2023-07-20T05:47:25;16.10;99.90
24448;DHT22;13348;50.984;5.822;2023-07-20T05:49:53;16.10;99.90
24448;DHT22;13348;50.984;5.822;2023-07-20T05:52:20;16.10;99.90
24448;DHT22;13348;50.984;5.822;2023-07-20T05:54:47;16.00;99.90
24448;DHT22;13348;50.984;5.822;2023-07-20T05:57:14;16.00;99.90
24448;DHT22;13348;50.984;5.822;2023-07-20T05:59:41;16.10;99.90
24448;DHT22;13348;50.984;5.822;2023-07-20T06:02:09;16.20;99.90
24448;DHT22;13348;50.984;5.822;2023-07-20T06:04:36;16.30;99.90
24448;DHT22;13348;50.984;5.822;2023-07-20T06:07:05;16.50;99.90
24448;DHT22;13348;50.984;5.822;2023-07-20T06:09:33;16.70;99.90
24448;DHT22;13348;50.984;5.822;2023-07-20T06:12:00;16.80;99.90
24448;DHT22;13348;50.984;5.822;2023-07-20T06:14:26;16.90;99.90
24448;DHT22;13348;50.984;5.822;2023-07-20T06:16:53;17.00;99.90
24448;DHT22;13348;50.984;5.822;2023-07-20T06:19:20;17.10;99.90
24448;DHT22;13348;50.984;5.822;2023-07-20T06:21:49;17.30;99.90
24448;DHT22;13348;50.984;5.822;2023-07-20T06:24:17;17.30;99.90
24448;DHT22;13348;50.984;5.822;2023-07-20T06:26:44;17.50;99.90
24448;DHT22;13348;50.984;5.822;2023-07-20T06:29:11;18.30;99.90
24448;DHT22;13348;50.984;5.822;2023-07-20T06:31:38;19.00;99.90
24448;DHT22;13348;50.984;5.822;2023-07-20T06:34:05;19.80;99.90
24448;DHT22;13348;50.984;5.822;2023-07-20T06:36:32;20.50;99.90
24448;DHT22;13348;50.984;5.822;2023-07-20T06:38:59;20.00;99.90
24448;DHT22;13348;50.984;5.822;2023-07-20T06:41:27;20.30;99.90
24448;DHT22;13348;50.984;5.822;2023-07-20T06:43:54;20.70;99.90
24448;DHT22;13348;50.984;5.822;2023-07-20T06:46:24;21.30;99.90
24448;DHT22;13348;50.984;5.822;2023-07-20T06:48:51;21.80;99.90
24448;DHT22;13348;50.984;5.822;2023-07-20T06:51:18;21.20;99.90
24448;DHT22;13348;50.984;5.822;2023-07-20T06:53:44;20.90;99.90
24448;DHT22;13348;50.984;5.822;2023-07-20T06:56:11;20.40;99.90
24448;DHT22;13348;50.984;5.822;2023-07-20T06:58:40;20.40;99.90
24448;DHT22;13348;50.984;5.822;2023-07-20T07:01:09;20.30;99.90
24448;DHT22;13348;50.984;5.822;2023-07-20T07:03:36;19.50;99.90
24448;DHT22;13348;50.984;5.822;2023-07-20T07:06:03;19.90;99.90
24448;DHT22;13348;50.984;5.822;2023-07-20T07:08:30;20.70;99.90
24448;DHT22;13348;50.984;5.822;2023-07-20T07:10:57;21.60;99.90
24448;DHT22;13348;50.984;5.822;2023-07-20T07:13:24;21.40;99.90
24448;DHT22;13348;50.984;5.822;2023-07-20T07:15:52;20.70;99.90
24448;DHT22;13348;50.984;5.822;2023-07-20T07:18:19;20.40;99.90
24448;DHT22;13348;50.984;5.822;2023-07-20T07:20:50;20.30;99.90
24448;DHT22;13348;50.984;5.822;2023-07-20T07:23:17;20.50;99.90
24448;DHT22;13348;50.984;5.822;2023-07-20T07:25:44;20.20;99.90
24448;DHT22;13348;50.984;5.822;2023-07-20T07:28:11;20.30;99.90
24448;DHT22;13348;50.984;5.822;2023-07-20T07:30:37;19.80;99.90
24448;DHT22;13348;50.984;5.822;2023-07-20T07:33:06;19.50;99.90
24448;DHT22;13348;50.984;5.822;2023-07-20T07:35:34;19.20;99.90
24448;DHT22;13348;50.984;5.822;2023-07-20T07:38:01;19.20;99.90
24448;DHT22;13348;50.984;5.822;2023-07-20T07:40:28;19.30;99.90
24448;DHT22;13348;50.984;5.822;2023-07-20T07:42:55;19.50;99.90
24448;DHT22;13348;50.984;5.822;2023-07-20T07:45:21;19.60;99.90
24448;DHT22;13348;50.984;5.822;2023-07-20T07:47:48;19.60;99.90
24448;DHT22;13348;50.984;5.822;2023-07-20T07:50:17;19.60;99.90
24448;DHT22;13348;50.984;5.822;2023-07-20T07:52:45;19.70;99.90
24448;DHT22;13348;50.984;5.822;2023-07-20T07:55:12;20.00;99.90
24448;DHT22;13348;50.984;5.822;2023-07-20T07:57:39;20.00;99.90
24448;DHT22;13348;50.984;5.822;2023-07-20T08:00:06;20.00;99.90
24448;DHT22;13348;50.984;5.822;2023-07-20T08:02:37;19.90;99.90
24448;DHT22;13348;50.984;5.822;2023-07-20T08:05:04;20.00;99.90
24448;DHT22;13348;50.984;5.822;2023-07-20T08:07:32;19.90;99.90
24448;DHT22;13348;50.984;5.822;2023-07-20T08:10:00;19.70;99.90
24448;DHT22;13348;50.984;5.822;2023-07-20T08:12:27;19.20;99.90
24448;DHT22;13348;50.984;5.822;2023-07-20T08:14:54;19.20;99.90
24448;DHT22;13348;50.984;5.822;2023-07-20T08:17:21;19.20;99.90
24448;DHT22;13348;50.984;5.822;2023-07-20T08:19:48;19.30;99.90
24448;DHT22;13348;50.984;5.822;2023-07-20T08:22:15;19.30;99.90
24448;DHT22;13348;50.984;5.822;2023-07-20T08:24:43;19.50;99.90
24448;DHT22;13348;50.984;5.822;2023-07-20T08:27:10;20.10;99.90
24448;DHT22;13348;50.984;5.822;2023-07-20T08:29:37;20.10;99.90
24448;DHT22;13348;50.984;5.822;2023-07-20T08:32:05;19.60;99.90
24448;DHT22;13348;50.984;5.822;2023-07-20T08:34:32;20.00;99.90
24448;DHT22;13348;50.984;5.822;2023-07-20T08:36:59;20.10;99.90
24448;DHT22;13348;50.984;5.822;2023-07-20T08:39:26;19.80;99.90
24448;DHT22;13348;50.984;5.822;2023-07-20T08:41:55;19.70;99.90
24448;DHT22;13348;50.984;5.822;2023-07-20T08:44:24;20.00;99.90
24448;DHT22;13348;50.984;5.822;2023-07-20T08:46:52;20.20;99.90
24448;DHT22;13348;50.984;5.822;2023-07-20T08:49:20;20.40;99.90
24448;DHT22;13348;50.984;5.822;2023-07-20T08:51:47;20.20;99.90
24448;DHT22;13348;50.984;5.822;2023-07-20T08:54:15;20.70;99.90
24448;DHT22;13348;50.984;5.822;2023-07-20T08:56:43;21.10;99.90
24448;DHT22;13348;50.984;5.822;2023-07-20T08:59:14;21.50;99.90
24448;DHT22;13348;50.984;5.822;2023-07-20T09:01:42;21.70;99.90
24448;DHT22;13348;50.984;5.822;2023-07-20T09:04:10;22.10;99.90
24448;DHT22;13348;50.984;5.822;2023-07-20T09:06:37;22.10;99.90
24448;DHT22;13348;50.984;5.822;2023-07-20T09:09:04;21.70;99.90
24448;DHT22;13348;50.984;5.822;2023-07-20T09:11:31;20.90;99.90
24448;DHT22;13348;50.984;5.822;2023-07-20T09:14:05;21.30;99.90
24448;DHT22;13348;50.984;5.822;2023-07-20T09:16:34;21.00;99.90
24448;DHT22;13348;50.984;5.822;2023-07-20T09:19:14;21.00;99.90
24448;DHT22;13348;50.984;5.822;2023-07-20T09:21:41;21.10;99.90
24448;DHT22;13348;50.984;5.822;2023-07-20T09:24:10;21.40;99.90
24448;DHT22;13348;50.984;5.822;2023-07-20T09:26:40;21.30;99.90
24448;DHT22;13348;50.984;5.822;2023-07-20T09:29:07;21.30;99.90
24448;DHT22;13348;50.984;5.822;2023-07-20T09:31:35;21.60;99.90
24448;DHT22;13348;50.984;5.822;2023-07-20T09:34:02;22.00;99.90
24448;DHT22;13348;50.984;5.822;2023-07-20T09:36:32;22.40;99.90
24448;DHT22;13348;50.984;5.822;2023-07-20T09:38:59;22.10;99.90
24448;DHT22;13348;50.984;5.822;2023-07-20T09:41:26;22.60;99.90
24448;DHT22;13348;50.984;5.822;2023-07-20T09:43:53;22.90;99.90
24448;DHT22;13348;50.984;5.822;2023-07-20T09:46:20;23.00;99.90
24448;DHT22;13348;50.984;5.822;2023-07-20T09:48:52;22.90;99.90
24448;DHT22;13348;50.984;5.822;2023-07-20T09:51:21;22.60;99.90
24448;DHT22;13348;50.984;5.822;2023-07-20T09:53:48;23.00;99.90
24448;DHT22;13348;50.984;5.822;2023-07-20T09:56:15;24.50;99.90
24448;DHT22;13348;50.984;5.822;2023-07-20T09:58:43;24.00;99.90
24448;DHT22;13348;50.984;5.822;2023-07-20T10:01:11;23.10;99.90
24448;DHT22;13348;50.984;5.822;2023-07-20T10:03:39;22.40;99.90
24448;DHT22;13348;50.984;5.822;2023-07-20T10:06:10;22.40;99.90
24448;DHT22;13348;50.984;5.822;2023-07-20T10:08:39;23.20;99.90
24448;DHT22;13348;50.984;5.822;2023-07-20T10:11:07;24.30;99.90
24448;DHT22;13348;50.984;5.822;2023-07-20T10:13:37;24.80;99.90
24448;DHT22;13348;50.984;5.822;2023-07-20T10:16:06;24.60;99.90
24448;DHT22;13348;50.984;5.822;2023-07-20T10:18:35;23.40;99.90
24448;DHT22;13348;50.984;5.822;2023-07-20T10:21:05;23.00;99.90
24448;DHT22;13348;50.984;5.822;2023-07-20T10:23:34;22.40;99.90
24448;DHT22;13348;50.984;5.822;2023-07-20T10:26:01;22.40;99.90
24448;DHT22;13348;50.984;5.822;2023-07-20T10:28:28;22.20;99.90
24448;DHT22;13348;50.984;5.822;2023-07-20T10:30:55;22.90;99.90
24448;DHT22;13348;50.984;5.822;2023-07-20T10:33:22;23.60;99.90
24448;DHT22;13348;50.984;5.822;2023-07-20T10:35:53;23.90;99.90
24448;DHT22;13348;50.984;5.822;2023-07-20T10:38:20;24.10;99.90
24448;DHT22;13348;50.984;5.822;2023-07-20T10:40:57;25.40;99.90
24448;DHT22;13348;50.984;5.822;2023-07-20T10:43:24;25.90;99.90
24448;DHT22;13348;50.984;5.822;2023-07-20T10:45:52;25.90;99.90
24448;DHT22;13348;50.984;5.822;2023-07-20T10:48:19;25.90;99.90
24448;DHT22;13348;50.984;5.822;2023-07-20T10:53:28;26.00;99.90
24448;DHT22;13348;50.984;5.822;2023-07-20T10:56:07;26.80;99.90
24448;DHT22;13348;50.984;5.822;2023-07-20T10:58:34;26.90;99.90
24448;DHT22;13348;50.984;5.822;2023-07-20T11:01:03;26.50;99.90
24448;DHT22;13348;50.984;5.822;2023-07-20T11:03:31;26.20;99.90
24448;DHT22;13348;50.984;5.822;2023-07-20T11:05:58;25.70;99.90
24448;DHT22;13348;50.984;5.822;2023-07-20T11:08:38;25.80;99.90
24448;DHT22;13348;50.984;5.822;2023-07-20T11:11:23;26.60;99.90
24448;DHT22;13348;50.984;5.822;2023-07-20T11:13:53;26.50;99.90
24448;DHT22;13348;50.984;5.822;2023-07-20T11:16:31;25.30;99.90
24448;DHT22;13348;50.984;5.822;2023-07-20T11:18:59;24.60;99.90
24448;DHT22;13348;50.984;5.822;2023-07-20T11:21:26;23.40;99.90
24448;DHT22;13348;50.984;5.822;2023-07-20T11:23:53;23.20;99.90
24448;DHT22;13348;50.984;5.822;2023-07-20T11:26:20;23.30;99.90
24448;DHT22;13348;50.984;5.822;2023-07-20T11:28:49;24.60;99.90
24448;DHT22;13348;50.984;5.822;2023-07-20T11:31:17;25.50;99.90
24448;DHT22;13348;50.984;5.822;2023-07-20T11:33:44;27.10;99.90
24448;DHT22;13348;50.984;5.822;2023-07-20T11:36:11;27.90;99.90
24448;DHT22;13348;50.984;5.822;2023-07-20T11:38:39;27.40;99.90
24448;DHT22;13348;50.984;5.822;2023-07-20T11:41:08;27.70;99.90
24448;DHT22;13348;50.984;5.822;2023-07-20T11:43:35;28.30;99.90
24448;DHT22;13348;50.984;5.822;2023-07-20T11:46:05;27.70;99.90
24448;DHT22;13348;50.984;5.822;2023-07-20T11:48:32;27.70;99.90
24448;DHT22;13348;50.984;5.822;2023-07-20T11:50:59;28.80;99.90
24448;DHT22;13348;50.984;5.822;2023-07-20T11:53:26;28.90;99.90
24448;DHT22;13348;50.984;5.822;2023-07-20T11:55:53;28.40;99.90
24448;DHT22;13348;50.984;5.822;2023-07-20T11:58:20;28.00;99.90
24448;DHT22;13348;50.984;5.822;2023-07-20T12:00:47;28.20;99.90
24448;DHT22;13348;50.984;5.822;2023-07-20T12:03:16;26.70;99.90
24448;DHT22;13348;50.984;5.822;2023-07-20T12:05:44;26.20;99.90
24448;DHT22;13348;50.984;5.822;2023-07-20T12:08:11;26.10;99.90
24448;DHT22;13348;50.984;5.822;2023-07-20T12:10:39;26.20;99.90
24448;DHT22;13348;50.984;5.822;2023-07-20T12:13:09;26.70;99.90
24448;DHT22;13348;50.984;5.822;2023-07-20T12:15:36;26.40;99.90
24448;DHT22;13348;50.984;5.822;2023-07-20T12:18:04;26.50;99.90
24448;DHT22;13348;50.984;5.822;2023-07-20T12:20:33;25.10;99.90
24448;DHT22;13348;50.984;5.822;2023-07-20T12:23:02;25.40;99.90
24448;DHT22;13348;50.984;5.822;2023-07-20T12:25:34;25.40;99.90
24448;DHT22;13348;50.984;5.822;2023-07-20T12:28:01;25.60;99.90
24448;DHT22;13348;50.984;5.822;2023-07-20T12:30:29;25.80;99.90
24448;DHT22;13348;50.984;5.822;2023-07-20T12:32:56;25.30;99.90
24448;DHT22;13348;50.984;5.822;2023-07-20T12:35:23;25.30;99.90
24448;DHT22;13348;50.984;5.822;2023-07-20T12:37:51;24.50;99.90
24448;DHT22;13348;50.984;5.822;2023-07-20T12:40:19;25.20;99.90
24448;DHT22;13348;50.984;5.822;2023-07-20T12:42:46;25.90;99.90
24448;DHT22;13348;50.984;5.822;2023-07-20T12:45:13;25.80;99.90
24448;DHT22;13348;50.984;5.822;2023-07-20T12:47:40;25.00;99.90
24448;DHT22;13348;50.984;5.822;2023-07-20T12:50:09;25.30;99.90
24448;DHT22;13348;50.984;5.822;2023-07-20T12:52:36;26.50;99.90
24448;DHT22;13348;50.984;5.822;2023-07-20T12:55:06;26.80;99.90
24448;DHT22;13348;50.984;5.822;2023-07-20T12:57:33;25.90;99.90
24448;DHT22;13348;50.984;5.822;2023-07-20T13:00:00;26.00;99.90
24448;DHT22;13348;50.984;5.822;2023-07-20T13:02:27;26.30;99.90
24448;DHT22;13348;50.984;5.822;2023-07-20T13:04:54;27.00;99.90
24448;DHT22;13348;50.984;5.822;2023-07-20T13:07:28;26.50;99.90
24448;DHT22;13348;50.984;5.822;2023-07-20T13:09:55;25.40;99.90
24448;DHT22;13348;50.984;5.822;2023-07-20T13:12:24;25.60;99.90
24448;DHT22;13348;50.984;5.822;2023-07-20T13:14:51;26.20;99.90
24448;DHT22;13348;50.984;5.822;2023-07-20T13:17:18;26.90;99.90
24448;DHT22;13348;50.984;5.822;2023-07-20T13:19:45;27.70;99.90
24448;DHT22;13348;50.984;5.822;2023-07-20T13:22:12;26.80;99.90
24448;DHT22;13348;50.984;5.822;2023-07-20T13:24:40;26.50;99.90
24448;DHT22;13348;50.984;5.822;2023-07-20T13:27:07;26.50;99.90
24448;DHT22;13348;50.984;5.822;2023-07-20T13:29:35;27.00;99.90
24448;DHT22;13348;50.984;5.822;2023-07-20T13:32:02;28.10;99.90
24448;DHT22;13348;50.984;5.822;2023-07-20T13:34:30;27.60;99.90
24448;DHT22;13348;50.984;5.822;2023-07-20T13:36:57;26.80;99.90
24448;DHT22;13348;50.984;5.822;2023-07-20T13:39:24;25.50;99.90
24448;DHT22;13348;50.984;5.822;2023-07-20T13:41:53;25.80;99.90
24448;DHT22;13348;50.984;5.822;2023-07-20T13:44:20;26.30;99.90
24448;DHT22;13348;50.984;5.822;2023-07-20T13:46:48;24.80;99.90
24448;DHT22;13348;50.984;5.822;2023-07-20T13:49:15;24.80;99.90
24448;DHT22;13348;50.984;5.822;2023-07-20T13:51:42;23.90;99.90
24448;DHT22;13348;50.984;5.822;2023-07-20T13:54:09;23.50;99.90
24448;DHT22;13348;50.984;5.822;2023-07-20T13:56:37;23.40;99.90
24448;DHT22;13348;50.984;5.822;2023-07-20T13:59:04;23.30;99.90
24448;DHT22;13348;50.984;5.822;2023-07-20T14:01:31;23.60;99.90
24448;DHT22;13348;50.984;5.822;2023-07-20T14:04:01;23.70;99.90
24448;DHT22;13348;50.984;5.822;2023-07-20T14:06:29;24.30;99.90
24448;DHT22;13348;50.984;5.822;2023-07-20T14:08:57;24.20;99.90
24448;DHT22;13348;50.984;5.822;2023-07-20T14:11:24;24.20;99.90
24448;DHT22;13348;50.984;5.822;2023-07-20T14:13:51;24.50;99.90
24448;DHT22;13348;50.984;5.822;2023-07-20T14:16:18;24.30;99.90
24448;DHT22;13348;50.984;5.822;2023-07-20T14:18:45;24.60;99.90
24448;DHT22;13348;50.984;5.822;2023-07-20T14:21:15;24.50;99.90
24448;DHT22;13348;50.984;5.822;2023-07-20T14:23:44;24.00;99.90
24448;DHT22;13348;50.984;5.822;2023-07-20T14:26:11;24.30;99.90
24448;DHT22;13348;50.984;5.822;2023-07-20T14:28:38;24.30;99.90
24448;DHT22;13348;50.984;5.822;2023-07-20T14:31:05;24.60;99.90
24448;DHT22;13348;50.984;5.822;2023-07-20T14:33:32;25.00;99.90
24448;DHT22;13348;50.984;5.822;2023-07-20T14:35:59;26.80;99.90
24448;DHT22;13348;50.984;5.822;2023-07-20T14:38:28;28.60;99.90
24448;DHT22;13348;50.984;5.822;2023-07-20T14:40:55;27.30;99.90
24448;DHT22;13348;50.984;5.822;2023-07-20T14:43:22;27.60;99.90
24448;DHT22;13348;50.984;5.822;2023-07-20T14:45:49;28.00;99.90
24448;DHT22;13348;50.984;5.822;2023-07-20T14:48:16;27.50;99.90
24448;DHT22;13348;50.984;5.822;2023-07-20T14:50:43;28.40;99.90
24448;DHT22;13348;50.984;5.822;2023-07-20T14:53:12;29.20;99.90
24448;DHT22;13348;50.984;5.822;2023-07-20T14:55:41;29.20;99.90
24448;DHT22;13348;50.984;5.822;2023-07-20T14:58:08;27.20;99.90
24448;DHT22;13348;50.984;5.822;2023-07-20T15:00:35;27.10;99.90
24448;DHT22;13348;50.984;5.822;2023-07-20T15:03:02;26.20;99.90
24448;DHT22;13348;50.984;5.822;2023-07-20T15:05:31;26.20;99.90
24448;DHT22;13348;50.984;5.822;2023-07-20T15:07:58;25.60;99.90
24448;DHT22;13348;50.984;5.822;2023-07-20T15:10:25;26.60;99.90
24448;DHT22;13348;50.984;5.822;2023-07-20T15:12:54;25.50;99.90
24448;DHT22;13348;50.984;5.822;2023-07-20T15:15:21;25.50;99.90
24448;DHT22;13348;50.984;5.822;2023-07-20T15:17:48;25.00;99.90
24448;DHT22;13348;50.984;5.822;2023-07-20T15:20:16;24.90;99.90
24448;DHT22;13348;50.984;5.822;2023-07-20T15:22:43;24.30;99.90
24448;DHT22;13348;50.984;5.822;2023-07-20T15:25:10;24.60;99.90
24448;DHT22;13348;50.984;5.822;2023-07-20T15:27:37;24.10;99.90
24448;DHT22;13348;50.984;5.822;2023-07-20T15:30:08;24.50;99.90
24448;DHT22;13348;50.984;5.822;2023-07-20T15:32:35;25.30;99.90
24448;DHT22;13348;50.984;5.822;2023-07-20T15:35:02;25.00;99.90
24448;DHT22;13348;50.984;5.822;2023-07-20T15:37:31;25.00;99.90
24448;DHT22;13348;50.984;5.822;2023-07-20T15:39:58;24.80;99.90